Seven Seas Explorer — ITP0196 — position and weather

sailwx.info

Track history (hours):
 
Tides and Currents Weather Stations Pressure Air Temp Water Temp Dewpoint Dewpoint Depression Visibility Wind Speed Wind Dir Waves Ship Positions

Seven Seas Explorer

Last reported at 2016-Jun-30 09:32 UTC. Time now 2020-Aug-07 04:02 UTC.
Position N 44°25' E 008°50'.
Warning: this ship's position is years out of date!

Length 224 m; draft 7.2 m.

Type: Passenger vessel. MMSI: 247371200.

Date/timePositionNaut miles runAvg speedWind from/ knotsBaromVisibWave heightAir tempDewpointWater temp
2016-Jun-30 09:32N 44°25' E 008°50'0 0.0
2016-Jun-30 08:32N 44°25' E 008°50'0 0.0
2016-Jun-30 07:32N 44°25' E 008°50'0 0.0
2016-Jun-30 06:32N 44°25' E 008°50'0 0.0
2016-Jun-30 05:32N 44°25' E 008°50'0 0.0
2016-Jun-30 04:32N 44°25' E 008°50'0 0.0
2016-Jun-30 03:32N 44°25' E 008°50'0 0.0
2016-Jun-30 02:32N 44°25' E 008°50'0 0.0
2016-Jun-30 01:32N 44°25' E 008°50'0 0.0
2016-Jun-30 00:32N 44°25' E 008°50'0 0.0
2016-Jun-29 23:29N 44°25' E 008°50'0 0.0
2016-Jun-29 22:32N 44°25' E 008°50'0 0.0
2016-Jun-29 21:32N 44°25' E 008°50'0 0.0
2016-Jun-29 20:32N 44°25' E 008°50'0 0.0
2016-Jun-29 19:33N 44°25' E 008°50'1 1.0
2016-Jun-29 18:33N 44°25' E 008°49'7 6.6
2016-Jun-29 17:34N 44°19' E 008°45'7 6.7
2016-Jun-29 16:33N 44°13' E 008°48'10 9.6
2016-Jun-29 15:33N 44°11' E 008°35'4 3.5
2016-Jun-29 14:33N 44°14' E 008°36'1616.0
2016-Jun-29 13:33N 44°12' E 008°59'1717.0
2016-Jun-29 12:33N 44°03' E 009°18'1413.7
2016-Jun-29 11:33N 44°01' E 009°37'1616.0
2016-Jun-29 10:33N 44°09' E 009°18'2 2.1
2016-Jun-29 09:33N 44°09' E 009°15'2 2.3
2016-Jun-29 08:34N 44°06' E 009°16'1414.3
2016-Jun-29 07:33N 44°12' E 008°57'4 3.9
2016-Jun-29 06:33N 44°14' E 008°53'1010.5
2016-Jun-29 05:34N 44°23' E 008°47'3 3.0
2016-Jun-29 04:29N 44°25' E 008°50'0 0.0
2016-Jun-29 03:29N 44°25' E 008°50'0 0.0
2016-Jun-29 02:29N 44°25' E 008°50'0 0.0
2016-Jun-29 01:29N 44°25' E 008°50'0 0.0
2016-Jun-29 00:29N 44°25' E 008°50'0 0.0
2016-Jun-28 23:29N 44°25' E 008°50'0 0.0
2016-Jun-28 22:29N 44°25' E 008°50'0 0.0
2016-Jun-28 21:29N 44°25' E 008°50'0 0.0
2016-Jun-28 20:29N 44°25' E 008°50'0 0.0
2016-Jun-28 19:29N 44°25' E 008°50'0 0.0
2016-Jun-28 18:29N 44°25' E 008°50'0 0.0
2016-Jun-28 17:29N 44°25' E 008°50'0 0.0
2016-Jun-28 16:29N 44°25' E 008°50'0 0.0
2016-Jun-28 15:29N 44°25' E 008°50'0 0.0
2016-Jun-28 14:29N 44°25' E 008°50'0 0.0
2016-Jun-28 13:29N 44°25' E 008°50'0 0.0
2016-Jun-28 12:29N 44°25' E 008°50'0 0.0
2016-Jun-28 11:29N 44°25' E 008°50'0 0.0
2016-Jun-28 10:29N 44°25' E 008°50'0 0.0
2016-Jun-28 09:29N 44°25' E 008°50'0 0.0
2016-Jun-28 08:29N 44°25' E 008°50'0 0.0
2016-Jun-28 07:29N 44°25' E 008°50'0 0.0
2016-Jun-28 06:29N 44°25' E 008°50'0 0.0
2016-Jun-28 04:29N 44°25' E 008°50'0 0.0
2016-Jun-28 03:29N 44°25' E 008°50'0 0.0
2016-Jun-28 02:29N 44°25' E 008°50'0 0.0
2016-Jun-28 01:29N 44°25' E 008°50'0 0.0
2016-Jun-28 00:29N 44°25' E 008°50'0 0.0
2016-Jun-27 23:29N 44°25' E 008°50'0 0.0
2016-Jun-27 22:29N 44°25' E 008°50'0 0.0
2016-Jun-27 21:29N 44°25' E 008°50'0 0.0
2016-Jun-27 20:29N 44°25' E 008°50'0 0.0
2016-Jun-27 19:29N 44°25' E 008°50'0 0.0
2016-Jun-27 18:29N 44°25' E 008°50'0 0.0
2016-Jun-27 17:29N 44°25' E 008°50'0 0.0
2016-Jun-27 16:29N 44°25' E 008°50'0 0.0
2016-Jun-27 15:29N 44°25' E 008°50'0 0.0
2016-Jun-27 14:29N 44°25' E 008°50'0 0.0
2016-Jun-27 13:29N 44°25' E 008°50'0 0.0
2016-Jun-27 12:29N 44°25' E 008°50'0 0.0
2016-Jun-27 11:29N 44°25' E 008°50'0 0.0
2016-Jun-27 10:29N 44°25' E 008°50'0 0.0
2016-Jun-27 09:29N 44°25' E 008°50'0 0.0
2016-Jun-27 08:29N 44°25' E 008°50'0 0.0
2016-Jun-27 07:29N 44°25' E 008°50'0 0.0
2016-Jun-27 06:29N 44°25' E 008°50'0 0.0
2016-Jun-27 05:29N 44°25' E 008°50'0 0.0
2016-Jun-27 04:29N 44°25' E 008°50'0 0.0
2016-Jun-27 03:29N 44°25' E 008°50'0 0.0
2016-Jun-27 02:29N 44°25' E 008°50'0 0.0
2016-Jun-27 01:29N 44°25' E 008°50'0 0.0
2016-Jun-27 00:29N 44°25' E 008°50'0 0.0
2016-Jun-26 23:29N 44°25' E 008°50'0 0.0
2016-Jun-26 22:29N 44°25' E 008°50'0 0.0
2016-Jun-26 21:29N 44°25' E 008°50'0 0.0
2016-Jun-26 20:29N 44°25' E 008°50'0 0.0
2016-Jun-26 19:29N 44°25' E 008°50'0 0.0
2016-Jun-26 18:29N 44°25' E 008°50'0 0.0
2016-Jun-26 17:29N 44°25' E 008°50'0 0.0
2016-Jun-26 16:29N 44°25' E 008°50'0 0.0
2016-Jun-26 15:29N 44°25' E 008°50'0 0.0
2016-Jun-26 14:29N 44°25' E 008°50'0 0.0
2016-Jun-26 13:29N 44°25' E 008°50'0 0.0
2016-Jun-26 12:29N 44°25' E 008°50'0 0.0
2016-Jun-26 11:29N 44°25' E 008°50'0 0.0
2016-Jun-26 10:29N 44°25' E 008°50'0 0.0
2016-Jun-26 09:29N 44°25' E 008°50'0 0.0
2016-Jun-26 08:29N 44°25' E 008°50'0 0.0
2016-Jun-26 07:29N 44°25' E 008°50'0 0.0
2016-Jun-26 06:29N 44°25' E 008°50'0 0.0
2016-Jun-26 05:29N 44°25' E 008°50'0 0.0
2016-Jun-26 04:29N 44°25' E 008°50'0 0.0
2016-Jun-26 03:29N 44°25' E 008°50'0 0.0
2016-Jun-26 02:29N 44°25' E 008°50'0 0.0
2016-Jun-26 01:29N 44°25' E 008°50'0 0.0
2016-Jun-26 00:29N 44°25' E 008°50'0 0.0
2016-Jun-25 23:29N 44°25' E 008°50'0 0.0
2016-Jun-25 22:29N 44°25' E 008°50'0 0.0
2016-Jun-25 21:29N 44°25' E 008°50'0 0.0
2016-Jun-25 20:29N 44°25' E 008°50'0 0.0
2016-Jun-25 19:29N 44°25' E 008°50'0 0.0
2016-Jun-25 18:29N 44°25' E 008°50'0 0.0
2016-Jun-25 17:29N 44°25' E 008°50'0 0.0
2016-Jun-25 16:29N 44°25' E 008°50'0 0.0
2016-Jun-25 15:29N 44°25' E 008°50'0 0.0
2016-Jun-25 14:29N 44°25' E 008°50'0 0.0
2016-Jun-25 13:29N 44°25' E 008°50'0 0.0
2016-Jun-25 12:29N 44°25' E 008°50'0 0.0
2016-Jun-25 11:29N 44°25' E 008°50'0 0.0
2016-Jun-25 10:29N 44°25' E 008°50'0 0.0
2016-Jun-25 09:29N 44°25' E 008°50'0 0.0
2016-Jun-25 08:29N 44°25' E 008°50'0 0.0
2016-Jun-25 07:29N 44°25' E 008°50'0 0.0
2016-Jun-25 06:29N 44°25' E 008°50'0 0.0
2016-Jun-25 05:29N 44°25' E 008°50'0 0.0
2016-Jun-25 04:29N 44°25' E 008°50'0 0.0
2016-Jun-25 03:29N 44°25' E 008°50'0 0.0
2016-Jun-25 02:29N 44°25' E 008°50'0 0.0
2016-Jun-25 01:29N 44°25' E 008°50'0 0.0
2016-Jun-25 00:29N 44°25' E 008°50'0 0.0
2016-Jun-24 23:29N 44°25' E 008°50'0 0.0
2016-Jun-24 22:29N 44°25' E 008°50'0 0.0
2016-Jun-24 21:29N 44°25' E 008°50'0 0.0
2016-Jun-24 20:29N 44°25' E 008°50'0 0.0
2016-Jun-24 19:29N 44°25' E 008°50'0 0.0
2016-Jun-24 18:29N 44°25' E 008°50'0 0.0
2016-Jun-24 17:29N 44°25' E 008°50'0 0.0
2016-Jun-24 16:29N 44°25' E 008°50'0 0.0
2016-Jun-24 15:29N 44°25' E 008°50'0 0.0
2016-Jun-24 14:29N 44°25' E 008°50'0 0.0
2016-Jun-24 13:29N 44°25' E 008°50'0 0.0
2016-Jun-24 12:23N 44°25' E 008°50'0 0.0
2016-Jun-24 11:29N 44°25' E 008°50'0 0.0
2016-Jun-24 10:29N 44°25' E 008°50'0 0.0
2016-Jun-24 09:29N 44°25' E 008°50'0 0.0
2016-Jun-24 08:29N 44°25' E 008°50'0 0.0
2016-Jun-24 07:29N 44°25' E 008°50'0 0.0
2016-Jun-24 04:29N 44°25' E 008°50'0 0.0
2016-Jun-24 03:29N 44°25' E 008°50'0 0.0
2016-Jun-24 02:29N 44°25' E 008°50'0 0.0
2016-Jun-24 01:29N 44°25' E 008°50'0 0.0
2016-Jun-24 00:29N 44°25' E 008°50'0 0.0
2016-Jun-23 23:29N 44°25' E 008°50'0 0.0
2016-Jun-23 22:29N 44°25' E 008°50'0 0.0
2016-Jun-23 21:29N 44°25' E 008°50'0 0.0
2016-Jun-23 20:29N 44°25' E 008°50'0 0.0
2016-Jun-23 19:29N 44°25' E 008°50'0 0.0
2016-Jun-23 18:29N 44°25' E 008°50'0 0.0
2016-Jun-23 17:29N 44°25' E 008°50'0 0.0
2016-Jun-23 16:29N 44°25' E 008°50'0 0.0
2016-Jun-23 15:29N 44°25' E 008°50'0 0.0
2016-Jun-23 14:29N 44°25' E 008°50'0 0.0
2016-Jun-23 13:29N 44°25' E 008°50'0 0.0
2016-Jun-23 12:32N 44°25' E 008°50'0 0.0
2016-Jun-23 11:32N 44°25' E 008°50'0 0.0
2016-Jun-23 10:28N 44°25' E 008°50'0 0.0
2016-Jun-23 09:28N 44°25' E 008°50'0 0.0
2016-Jun-23 08:28N 44°25' E 008°50'0 0.0
2016-Jun-23 07:28N 44°25' E 008°50'0 0.0
2016-Jun-23 05:33N 44°25' E 008°50'0 0.0
2016-Jun-23 04:33N 44°25' E 008°50'0 0.0
2016-Jun-23 03:33N 44°25' E 008°50'0 0.0
2016-Jun-23 02:33N 44°25' E 008°50'0 0.0
2016-Jun-23 01:33N 44°25' E 008°50'0 0.0
2016-Jun-23 00:33N 44°25' E 008°50'0 0.0
2016-Jun-22 23:33N 44°25' E 008°50'0 0.0
2016-Jun-22 22:33N 44°25' E 008°50'0 0.0
2016-Jun-22 21:33N 44°25' E 008°50'0 0.0
2016-Jun-22 20:33N 44°25' E 008°50'0 0.0
2016-Jun-22 19:29N 44°25' E 008°50'0 0.0
2016-Jun-22 18:29N 44°25' E 008°50'0 0.0
2016-Jun-22 17:29N 44°25' E 008°50'0 0.0
2016-Jun-22 16:31N 44°25' E 008°50'0 0.0
2016-Jun-22 15:34N 44°25' E 008°50'0 0.0
2016-Jun-22 14:31N 44°25' E 008°50'0 0.0
2016-Jun-22 13:31N 44°25' E 008°50'0 0.0
2016-Jun-22 12:31N 44°25' E 008°50'0 0.0
2016-Jun-22 11:31N 44°25' E 008°50'0 0.0
2016-Jun-22 10:33N 44°25' E 008°50'0 0.0
2016-Jun-22 09:27N 44°25' E 008°50'0 0.0
2016-Jun-22 08:27N 44°25' E 008°50'0 0.0
2016-Jun-22 07:33N 44°25' E 008°50'0 0.0
2016-Jun-22 06:30N 44°25' E 008°50'0 0.0
2016-Jun-22 05:30N 44°25' E 008°50'0 0.0
2016-Jun-22 04:33N 44°25' E 008°50'0 0.0
2016-Jun-22 03:33N 44°25' E 008°50'0 0.0
2016-Jun-22 02:30N 44°25' E 008°50'0 0.0
2016-Jun-22 01:33N 44°25' E 008°50'0 0.0
2016-Jun-22 00:33N 44°25' E 008°50'0 0.0
2016-Jun-21 23:33N 44°25' E 008°50'0 0.0
2016-Jun-21 22:33N 44°25' E 008°50'0 0.0
2016-Jun-21 21:33N 44°25' E 008°50'0 0.0
2016-Jun-21 20:31N 44°25' E 008°50'0 0.0
2016-Jun-21 19:31N 44°25' E 008°50'0 0.0
2016-Jun-21 18:31N 44°25' E 008°50'0 0.0
2016-Jun-21 17:31N 44°25' E 008°50'0 0.0
2016-Jun-21 16:31N 44°25' E 008°50'0 0.0
2016-Jun-21 15:33N 44°25' E 008°50'0 0.0
2016-Jun-21 14:33N 44°25' E 008°50'0 0.0
2016-Jun-21 13:33N 44°25' E 008°50'0 0.0
2016-Jun-21 12:33N 44°25' E 008°50'0 0.0
2016-Jun-21 11:24N 44°25' E 008°50'0 0.0
2016-Jun-21 10:33N 44°25' E 008°50'0 0.0
2016-Jun-21 09:33N 44°25' E 008°50'0 0.0
2016-Jun-21 08:30N 44°25' E 008°50'0 0.0
2016-Jun-21 07:33N 44°25' E 008°50'0 0.0
2016-Jun-21 04:30N 44°25' E 008°50'0 0.0
2016-Jun-21 03:30N 44°25' E 008°50'0 0.0
2016-Jun-21 02:30N 44°25' E 008°50'0 0.0
2016-Jun-21 01:30N 44°25' E 008°50'0 0.0
2016-Jun-21 00:30N 44°25' E 008°50'0 0.0
2016-Jun-20 23:30N 44°25' E 008°50'0 0.0
2016-Jun-20 22:30N 44°25' E 008°50'0 0.0
2016-Jun-20 21:30N 44°25' E 008°50'0 0.0
2016-Jun-20 20:24N 44°25' E 008°50'0 0.0
2016-Jun-20 19:30N 44°25' E 008°50'0 0.0
2016-Jun-20 18:32N 44°25' E 008°50'0 0.0
2016-Jun-20 17:32N 44°25' E 008°50'0 0.0
2016-Jun-20 16:32N 44°25' E 008°50'0 0.0
2016-Jun-20 15:32N 44°25' E 008°50'0 0.0
2016-Jun-20 14:30N 44°25' E 008°50'0 0.0
2016-Jun-20 13:30N 44°25' E 008°50'0 0.0
2016-Jun-20 12:30N 44°25' E 008°50'0 0.0
2016-Jun-20 11:30N 44°25' E 008°50'0 0.0
2016-Jun-20 10:30N 44°25' E 008°50'  
Track history (hours):
 
Tides and Currents Weather Stations Pressure Air Temp Water Temp Dewpoint Dewpoint Depression Visibility Wind Speed Wind Dir Waves Ship Positions

Seven Seas Explorer

Last reported at 2016-Jun-30 09:32 UTC. Time now 2020-Aug-07 04:02 UTC.
Position N 44°25' E 008°50'.
Warning: this ship's position is years out of date!

Length 224 m; draft 7.2 m.

Type: Passenger vessel. MMSI: 247371200.

Date/timePositionNaut miles runAvg speedWind from/ knotsBaromVisibWave heightAir tempDewpointWater temp
2016-Jun-30 09:32N 44°25' E 008°50'0 0.0
2016-Jun-30 08:32N 44°25' E 008°50'0 0.0
2016-Jun-30 07:32N 44°25' E 008°50'0 0.0
2016-Jun-30 06:32N 44°25' E 008°50'0 0.0
2016-Jun-30 05:32N 44°25' E 008°50'0 0.0
2016-Jun-30 04:32N 44°25' E 008°50'0 0.0
2016-Jun-30 03:32N 44°25' E 008°50'0 0.0
2016-Jun-30 02:32N 44°25' E 008°50'0 0.0
2016-Jun-30 01:32N 44°25' E 008°50'0 0.0
2016-Jun-30 00:32N 44°25' E 008°50'0 0.0
2016-Jun-29 23:29N 44°25' E 008°50'0 0.0
2016-Jun-29 22:32N 44°25' E 008°50'0 0.0
2016-Jun-29 21:32N 44°25' E 008°50'0 0.0
2016-Jun-29 20:32N 44°25' E 008°50'0 0.0
2016-Jun-29 19:33N 44°25' E 008°50'1 1.0
2016-Jun-29 18:33N 44°25' E 008°49'7 6.6
2016-Jun-29 17:34N 44°19' E 008°45'7 6.7
2016-Jun-29 16:33N 44°13' E 008°48'10 9.6
2016-Jun-29 15:33N 44°11' E 008°35'4 3.5
2016-Jun-29 14:33N 44°14' E 008°36'1616.0
2016-Jun-29 13:33N 44°12' E 008°59'1717.0
2016-Jun-29 12:33N 44°03' E 009°18'1413.7
2016-Jun-29 11:33N 44°01' E 009°37'1616.0
2016-Jun-29 10:33N 44°09' E 009°18'2 2.1
2016-Jun-29 09:33N 44°09' E 009°15'2 2.3
2016-Jun-29 08:34N 44°06' E 009°16'1414.3
2016-Jun-29 07:33N 44°12' E 008°57'4 3.9
2016-Jun-29 06:33N 44°14' E 008°53'1010.5
2016-Jun-29 05:34N 44°23' E 008°47'3 3.0
2016-Jun-29 04:29N 44°25' E 008°50'0 0.0
2016-Jun-29 03:29N 44°25' E 008°50'0 0.0
2016-Jun-29 02:29N 44°25' E 008°50'0 0.0
2016-Jun-29 01:29N 44°25' E 008°50'0 0.0
2016-Jun-29 00:29N 44°25' E 008°50'0 0.0
2016-Jun-28 23:29N 44°25' E 008°50'0 0.0
2016-Jun-28 22:29N 44°25' E 008°50'0 0.0
2016-Jun-28 21:29N 44°25' E 008°50'0 0.0
2016-Jun-28 20:29N 44°25' E 008°50'0 0.0
2016-Jun-28 19:29N 44°25' E 008°50'0 0.0
2016-Jun-28 18:29N 44°25' E 008°50'0 0.0
2016-Jun-28 17:29N 44°25' E 008°50'0 0.0
2016-Jun-28 16:29N 44°25' E 008°50'0 0.0
2016-Jun-28 15:29N 44°25' E 008°50'0 0.0
2016-Jun-28 14:29N 44°25' E 008°50'0 0.0
2016-Jun-28 13:29N 44°25' E 008°50'0 0.0
2016-Jun-28 12:29N 44°25' E 008°50'0 0.0
2016-Jun-28 11:29N 44°25' E 008°50'0 0.0
2016-Jun-28 10:29N 44°25' E 008°50'0 0.0
2016-Jun-28 09:29N 44°25' E 008°50'0 0.0
2016-Jun-28 08:29N 44°25' E 008°50'0 0.0
2016-Jun-28 07:29N 44°25' E 008°50'0 0.0
2016-Jun-28 06:29N 44°25' E 008°50'0 0.0
2016-Jun-28 04:29N 44°25' E 008°50'0 0.0
2016-Jun-28 03:29N 44°25' E 008°50'0 0.0
2016-Jun-28 02:29N 44°25' E 008°50'0 0.0
2016-Jun-28 01:29N 44°25' E 008°50'0 0.0
2016-Jun-28 00:29N 44°25' E 008°50'0 0.0
2016-Jun-27 23:29N 44°25' E 008°50'0 0.0
2016-Jun-27 22:29N 44°25' E 008°50'0 0.0
2016-Jun-27 21:29N 44°25' E 008°50'0 0.0
2016-Jun-27 20:29N 44°25' E 008°50'0 0.0
2016-Jun-27 19:29N 44°25' E 008°50'0 0.0
2016-Jun-27 18:29N 44°25' E 008°50'0 0.0
2016-Jun-27 17:29N 44°25' E 008°50'0 0.0
2016-Jun-27 16:29N 44°25' E 008°50'0 0.0
2016-Jun-27 15:29N 44°25' E 008°50'0 0.0
2016-Jun-27 14:29N 44°25' E 008°50'0 0.0
2016-Jun-27 13:29N 44°25' E 008°50'0 0.0
2016-Jun-27 12:29N 44°25' E 008°50'0 0.0
2016-Jun-27 11:29N 44°25' E 008°50'0 0.0
2016-Jun-27 10:29N 44°25' E 008°50'0 0.0
2016-Jun-27 09:29N 44°25' E 008°50'0 0.0
2016-Jun-27 08:29N 44°25' E 008°50'0 0.0
2016-Jun-27 07:29N 44°25' E 008°50'0 0.0
2016-Jun-27 06:29N 44°25' E 008°50'0 0.0
2016-Jun-27 05:29N 44°25' E 008°50'0 0.0
2016-Jun-27 04:29N 44°25' E 008°50'0 0.0
2016-Jun-27 03:29N 44°25' E 008°50'0 0.0
2016-Jun-27 02:29N 44°25' E 008°50'0 0.0
2016-Jun-27 01:29N 44°25' E 008°50'0 0.0
2016-Jun-27 00:29N 44°25' E 008°50'0 0.0
2016-Jun-26 23:29N 44°25' E 008°50'0 0.0
2016-Jun-26 22:29N 44°25' E 008°50'0 0.0
2016-Jun-26 21:29N 44°25' E 008°50'0 0.0
2016-Jun-26 20:29N 44°25' E 008°50'0 0.0
2016-Jun-26 19:29N 44°25' E 008°50'0 0.0
2016-Jun-26 18:29N 44°25' E 008°50'0 0.0
2016-Jun-26 17:29N 44°25' E 008°50'0 0.0
2016-Jun-26 16:29N 44°25' E 008°50'0 0.0
2016-Jun-26 15:29N 44°25' E 008°50'0 0.0
2016-Jun-26 14:29N 44°25' E 008°50'0 0.0
2016-Jun-26 13:29N 44°25' E 008°50'0 0.0
2016-Jun-26 12:29N 44°25' E 008°50'0 0.0
2016-Jun-26 11:29N 44°25' E 008°50'0 0.0
2016-Jun-26 10:29N 44°25' E 008°50'0 0.0
2016-Jun-26 09:29N 44°25' E 008°50'0 0.0
2016-Jun-26 08:29N 44°25' E 008°50'0 0.0
2016-Jun-26 07:29N 44°25' E 008°50'0 0.0
2016-Jun-26 06:29N 44°25' E 008°50'0 0.0
2016-Jun-26 05:29N 44°25' E 008°50'0 0.0
2016-Jun-26 04:29N 44°25' E 008°50'0 0.0
2016-Jun-26 03:29N 44°25' E 008°50'0 0.0
2016-Jun-26 02:29N 44°25' E 008°50'0 0.0
2016-Jun-26 01:29N 44°25' E 008°50'0 0.0
2016-Jun-26 00:29N 44°25' E 008°50'0 0.0
2016-Jun-25 23:29N 44°25' E 008°50'0 0.0
2016-Jun-25 22:29N 44°25' E 008°50'0 0.0
2016-Jun-25 21:29N 44°25' E 008°50'0 0.0
2016-Jun-25 20:29N 44°25' E 008°50'0 0.0
2016-Jun-25 19:29N 44°25' E 008°50'0 0.0
2016-Jun-25 18:29N 44°25' E 008°50'0 0.0
2016-Jun-25 17:29N 44°25' E 008°50'0 0.0
2016-Jun-25 16:29N 44°25' E 008°50'0 0.0
2016-Jun-25 15:29N 44°25' E 008°50'0 0.0
2016-Jun-25 14:29N 44°25' E 008°50'0 0.0
2016-Jun-25 13:29N 44°25' E 008°50'0 0.0
2016-Jun-25 12:29N 44°25' E 008°50'0 0.0
2016-Jun-25 11:29N 44°25' E 008°50'0 0.0
2016-Jun-25 10:29N 44°25' E 008°50'0 0.0
2016-Jun-25 09:29N 44°25' E 008°50'0 0.0
2016-Jun-25 08:29N 44°25' E 008°50'0 0.0
2016-Jun-25 07:29N 44°25' E 008°50'0 0.0
2016-Jun-25 06:29N 44°25' E 008°50'0 0.0
2016-Jun-25 05:29N 44°25' E 008°50'0 0.0
2016-Jun-25 04:29N 44°25' E 008°50'0 0.0
2016-Jun-25 03:29N 44°25' E 008°50'0 0.0
2016-Jun-25 02:29N 44°25' E 008°50'0 0.0
2016-Jun-25 01:29N 44°25' E 008°50'0 0.0
2016-Jun-25 00:29N 44°25' E 008°50'0 0.0
2016-Jun-24 23:29N 44°25' E 008°50'0 0.0
2016-Jun-24 22:29N 44°25' E 008°50'0 0.0
2016-Jun-24 21:29N 44°25' E 008°50'0 0.0
2016-Jun-24 20:29N 44°25' E 008°50'0 0.0
2016-Jun-24 19:29N 44°25' E 008°50'0 0.0
2016-Jun-24 18:29N 44°25' E 008°50'0 0.0
2016-Jun-24 17:29N 44°25' E 008°50'0 0.0
2016-Jun-24 16:29N 44°25' E 008°50'0 0.0
2016-Jun-24 15:29N 44°25' E 008°50'0 0.0
2016-Jun-24 14:29N 44°25' E 008°50'0 0.0
2016-Jun-24 13:29N 44°25' E 008°50'0 0.0
2016-Jun-24 12:23N 44°25' E 008°50'0 0.0
2016-Jun-24 11:29N 44°25' E 008°50'0 0.0
2016-Jun-24 10:29N 44°25' E 008°50'0 0.0
2016-Jun-24 09:29N 44°25' E 008°50'0 0.0
2016-Jun-24 08:29N 44°25' E 008°50'0 0.0
2016-Jun-24 07:29N 44°25' E 008°50'0 0.0
2016-Jun-24 04:29N 44°25' E 008°50'0 0.0
2016-Jun-24 03:29N 44°25' E 008°50'0 0.0
2016-Jun-24 02:29N 44°25' E 008°50'0 0.0
2016-Jun-24 01:29N 44°25' E 008°50'0 0.0
2016-Jun-24 00:29N 44°25' E 008°50'0 0.0
2016-Jun-23 23:29N 44°25' E 008°50'0 0.0
2016-Jun-23 22:29N 44°25' E 008°50'0 0.0
2016-Jun-23 21:29N 44°25' E 008°50'0 0.0
2016-Jun-23 20:29N 44°25' E 008°50'0 0.0
2016-Jun-23 19:29N 44°25' E 008°50'0 0.0
2016-Jun-23 18:29N 44°25' E 008°50'0 0.0
2016-Jun-23 17:29N 44°25' E 008°50'0 0.0
2016-Jun-23 16:29N 44°25' E 008°50'0 0.0
2016-Jun-23 15:29N 44°25' E 008°50'0 0.0
2016-Jun-23 14:29N 44°25' E 008°50'0 0.0
2016-Jun-23 13:29N 44°25' E 008°50'0 0.0
2016-Jun-23 12:32N 44°25' E 008°50'0 0.0
2016-Jun-23 11:32N 44°25' E 008°50'0 0.0
2016-Jun-23 10:28N 44°25' E 008°50'0 0.0
2016-Jun-23 09:28N 44°25' E 008°50'0 0.0
2016-Jun-23 08:28N 44°25' E 008°50'0 0.0
2016-Jun-23 07:28N 44°25' E 008°50'0 0.0
2016-Jun-23 05:33N 44°25' E 008°50'0 0.0
2016-Jun-23 04:33N 44°25' E 008°50'0 0.0
2016-Jun-23 03:33N 44°25' E 008°50'0 0.0
2016-Jun-23 02:33N 44°25' E 008°50'0 0.0
2016-Jun-23 01:33N 44°25' E 008°50'0 0.0
2016-Jun-23 00:33N 44°25' E 008°50'0 0.0
2016-Jun-22 23:33N 44°25' E 008°50'0 0.0
2016-Jun-22 22:33N 44°25' E 008°50'0 0.0
2016-Jun-22 21:33N 44°25' E 008°50'0 0.0
2016-Jun-22 20:33N 44°25' E 008°50'0 0.0
2016-Jun-22 19:29N 44°25' E 008°50'0 0.0
2016-Jun-22 18:29N 44°25' E 008°50'0 0.0
2016-Jun-22 17:29N 44°25' E 008°50'0 0.0
2016-Jun-22 16:31N 44°25' E 008°50'0 0.0
2016-Jun-22 15:34N 44°25' E 008°50'0 0.0
2016-Jun-22 14:31N 44°25' E 008°50'0 0.0
2016-Jun-22 13:31N 44°25' E 008°50'0 0.0
2016-Jun-22 12:31N 44°25' E 008°50'0 0.0
2016-Jun-22 11:31N 44°25' E 008°50'0 0.0
2016-Jun-22 10:33N 44°25' E 008°50'0 0.0
2016-Jun-22 09:27N 44°25' E 008°50'0 0.0
2016-Jun-22 08:27N 44°25' E 008°50'0 0.0
2016-Jun-22 07:33N 44°25' E 008°50'0 0.0
2016-Jun-22 06:30N 44°25' E 008°50'0 0.0
2016-Jun-22 05:30N 44°25' E 008°50'0 0.0
2016-Jun-22 04:33N 44°25' E 008°50'0 0.0
2016-Jun-22 03:33N 44°25' E 008°50'0 0.0
2016-Jun-22 02:30N 44°25' E 008°50'0 0.0
2016-Jun-22 01:33N 44°25' E 008°50'0 0.0
2016-Jun-22 00:33N 44°25' E 008°50'0 0.0
2016-Jun-21 23:33N 44°25' E 008°50'0 0.0
2016-Jun-21 22:33N 44°25' E 008°50'0 0.0
2016-Jun-21 21:33N 44°25' E 008°50'0 0.0
2016-Jun-21 20:31N 44°25' E 008°50'0 0.0
2016-Jun-21 19:31N 44°25' E 008°50'0 0.0
2016-Jun-21 18:31N 44°25' E 008°50'0 0.0
2016-Jun-21 17:31N 44°25' E 008°50'0 0.0
2016-Jun-21 16:31N 44°25' E 008°50'0 0.0
2016-Jun-21 15:33N 44°25' E 008°50'0 0.0
2016-Jun-21 14:33N 44°25' E 008°50'0 0.0
2016-Jun-21 13:33N 44°25' E 008°50'0 0.0
2016-Jun-21 12:33N 44°25' E 008°50'0 0.0
2016-Jun-21 11:24N 44°25' E 008°50'0 0.0
2016-Jun-21 10:33N 44°25' E 008°50'0 0.0
2016-Jun-21 09:33N 44°25' E 008°50'0 0.0
2016-Jun-21 08:30N 44°25' E 008°50'0 0.0
2016-Jun-21 07:33N 44°25' E 008°50'0 0.0
2016-Jun-21 04:30N 44°25' E 008°50'0 0.0
2016-Jun-21 03:30N 44°25' E 008°50'0 0.0
2016-Jun-21 02:30N 44°25' E 008°50'0 0.0
2016-Jun-21 01:30N 44°25' E 008°50'0 0.0
2016-Jun-21 00:30N 44°25' E 008°50'0 0.0
2016-Jun-20 23:30N 44°25' E 008°50'0 0.0
2016-Jun-20 22:30N 44°25' E 008°50'0 0.0
2016-Jun-20 21:30N 44°25' E 008°50'0 0.0
2016-Jun-20 20:24N 44°25' E 008°50'0 0.0
2016-Jun-20 19:30N 44°25' E 008°50'0 0.0
2016-Jun-20 18:32N 44°25' E 008°50'0 0.0
2016-Jun-20 17:32N 44°25' E 008°50'0 0.0
2016-Jun-20 16:32N 44°25' E 008°50'0 0.0
2016-Jun-20 15:32N 44°25' E 008°50'0 0.0
2016-Jun-20 14:30N 44°25' E 008°50'0 0.0
2016-Jun-20 13:30N 44°25' E 008°50'0 0.0
2016-Jun-20 12:30N 44°25' E 008°50'0 0.0
2016-Jun-20 11:30N 44°25' E 008°50'0 0.0
2016-Jun-20 10:30N 44°25' E 008°50'  

Dump ship's entire track history